sensor_id;sensor_type;location;lat;lon;timestamp;P1;durP1;ratioP1;P2;durP2;ratioP2
58338;SDS011;48278;52.704;6.536;2022-07-06T00:02:00;10.77;;;4.35;;
58338;SDS011;48278;52.704;6.536;2022-07-06T00:04:26;10.52;;;3.75;;
58338;SDS011;48278;52.704;6.536;2022-07-06T00:06:52;7.47;;;3.58;;
58338;SDS011;48278;52.704;6.536;2022-07-06T00:09:18;21.38;;;4.00;;
58338;SDS011;48278;52.704;6.536;2022-07-06T00:11:43;10.00;;;3.40;;
58338;SDS011;48278;52.704;6.536;2022-07-06T00:14:09;14.35;;;3.60;;
58338;SDS011;48278;52.704;6.536;2022-07-06T00:16:36;9.18;;;3.75;;
58338;SDS011;48278;52.704;6.536;2022-07-06T00:21:28;9.33;;;2.93;;
58338;SDS011;48278;52.704;6.536;2022-07-06T00:23:53;14.75;;;3.85;;
58338;SDS011;48278;52.704;6.536;2022-07-06T00:26:19;11.63;;;2.97;;
58338;SDS011;48278;52.704;6.536;2022-07-06T00:28:45;13.25;;;3.10;;
58338;SDS011;48278;52.704;6.536;2022-07-06T00:31:11;13.23;;;3.38;;
58338;SDS011;48278;52.704;6.536;2022-07-06T00:33:37;9.00;;;3.55;;
58338;SDS011;48278;52.704;6.536;2022-07-06T00:36:02;11.02;;;3.42;;
58338;SDS011;48278;52.704;6.536;2022-07-06T00:38:28;13.48;;;3.97;;
58338;SDS011;48278;52.704;6.536;2022-07-06T00:40:54;13.82;;;3.30;;
58338;SDS011;48278;52.704;6.536;2022-07-06T00:43:20;9.77;;;2.90;;
58338;SDS011;48278;52.704;6.536;2022-07-06T00:45:47;12.23;;;2.90;;
58338;SDS011;48278;52.704;6.536;2022-07-06T00:48:13;11.48;;;2.72;;
58338;SDS011;48278;52.704;6.536;2022-07-06T00:50:39;9.30;;;2.85;;
58338;SDS011;48278;52.704;6.536;2022-07-06T00:53:05;6.60;;;2.40;;
58338;SDS011;48278;52.704;6.536;2022-07-06T00:55:34;12.98;;;2.80;;
58338;SDS011;48278;52.704;6.536;2022-07-06T00:58:04;10.52;;;2.15;;
58338;SDS011;48278;52.704;6.536;2022-07-06T01:00:31;6.00;;;1.97;;
58338;SDS011;48278;52.704;6.536;2022-07-06T01:02:57;6.22;;;2.15;;
58338;SDS011;48278;52.704;6.536;2022-07-06T01:05:23;9.52;;;2.20;;
58338;SDS011;48278;52.704;6.536;2022-07-06T01:07:49;7.60;;;2.20;;
58338;SDS011;48278;52.704;6.536;2022-07-06T01:10:24;6.97;;;2.28;;
58338;SDS011;48278;52.704;6.536;2022-07-06T01:15:20;10.43;;;2.33;;
58338;SDS011;48278;52.704;6.536;2022-07-06T01:17:47;10.63;;;2.42;;
58338;SDS011;48278;52.704;6.536;2022-07-06T01:22:40;7.43;;;2.10;;
58338;SDS011;48278;52.704;6.536;2022-07-06T01:25:07;11.37;;;2.37;;
58338;SDS011;48278;52.704;6.536;2022-07-06T01:27:36;13.18;;;2.33;;
58338;SDS011;48278;52.704;6.536;2022-07-06T01:30:05;9.48;;;2.40;;
58338;SDS011;48278;52.704;6.536;2022-07-06T01:32:32;8.30;;;1.98;;
58338;SDS011;48278;52.704;6.536;2022-07-06T01:35:00;8.77;;;2.58;;
58338;SDS011;48278;52.704;6.536;2022-07-06T01:37:26;11.00;;;2.63;;
58338;SDS011;48278;52.704;6.536;2022-07-06T01:39:52;9.00;;;2.30;;
58338;SDS011;48278;52.704;6.536;2022-07-06T01:42:18;7.82;;;2.15;;
58338;SDS011;48278;52.704;6.536;2022-07-06T01:44:44;8.43;;;2.10;;
58338;SDS011;48278;52.704;6.536;2022-07-06T01:47:10;10.40;;;2.20;;
58338;SDS011;48278;52.704;6.536;2022-07-06T01:49:36;11.52;;;2.33;;
58338;SDS011;48278;52.704;6.536;2022-07-06T01:52:02;10.70;;;2.50;;
58338;SDS011;48278;52.704;6.536;2022-07-06T01:54:28;7.18;;;1.75;;
58338;SDS011;48278;52.704;6.536;2022-07-06T01:56:54;8.32;;;2.28;;
58338;SDS011;48278;52.704;6.536;2022-07-06T01:59:20;10.15;;;2.40;;
58338;SDS011;48278;52.704;6.536;2022-07-06T02:01:45;8.27;;;2.38;;
58338;SDS011;48278;52.704;6.536;2022-07-06T02:04:11;7.45;;;1.85;;
58338;SDS011;48278;52.704;6.536;2022-07-06T02:06:37;11.43;;;2.13;;
58338;SDS011;48278;52.704;6.536;2022-07-06T02:09:03;7.93;;;2.10;;
58338;SDS011;48278;52.704;6.536;2022-07-06T02:11:29;7.43;;;2.20;;
58338;SDS011;48278;52.704;6.536;2022-07-06T02:13:54;8.88;;;2.08;;
58338;SDS011;48278;52.704;6.536;2022-07-06T02:16:20;9.93;;;1.80;;
58338;SDS011;48278;52.704;6.536;2022-07-06T02:18:46;9.88;;;1.83;;
58338;SDS011;48278;52.704;6.536;2022-07-06T02:21:11;7.88;;;2.10;;
58338;SDS011;48278;52.704;6.536;2022-07-06T02:23:37;6.53;;;1.63;;
58338;SDS011;48278;52.704;6.536;2022-07-06T02:26:03;9.00;;;1.50;;
58338;SDS011;48278;52.704;6.536;2022-07-06T02:28:29;5.28;;;1.65;;
58338;SDS011;48278;52.704;6.536;2022-07-06T02:30:55;5.95;;;2.08;;
58338;SDS011;48278;52.704;6.536;2022-07-06T02:33:20;9.85;;;2.28;;
58338;SDS011;48278;52.704;6.536;2022-07-06T02:35:46;7.18;;;2.28;;
58338;SDS011;48278;52.704;6.536;2022-07-06T02:38:12;9.52;;;2.88;;
58338;SDS011;48278;52.704;6.536;2022-07-06T02:40:38;11.20;;;2.35;;
58338;SDS011;48278;52.704;6.536;2022-07-06T02:43:04;8.07;;;2.63;;
58338;SDS011;48278;52.704;6.536;2022-07-06T02:45:30;11.02;;;2.65;;
58338;SDS011;48278;52.704;6.536;2022-07-06T02:47:57;7.57;;;2.13;;
58338;SDS011;48278;52.704;6.536;2022-07-06T02:50:23;11.40;;;2.47;;
58338;SDS011;48278;52.704;6.536;2022-07-06T02:52:49;10.30;;;2.58;;
58338;SDS011;48278;52.704;6.536;2022-07-06T02:55:15;13.63;;;2.90;;
58338;SDS011;48278;52.704;6.536;2022-07-06T02:57:41;11.40;;;2.92;;
58338;SDS011;48278;52.704;6.536;2022-07-06T03:00:07;10.65;;;2.70;;
58338;SDS011;48278;52.704;6.536;2022-07-06T03:02:34;7.15;;;2.38;;
58338;SDS011;48278;52.704;6.536;2022-07-06T03:05:00;8.27;;;2.40;;
58338;SDS011;48278;52.704;6.536;2022-07-06T03:07:26;9.52;;;2.72;;
58338;SDS011;48278;52.704;6.536;2022-07-06T03:09:52;12.07;;;3.10;;
58338;SDS011;48278;52.704;6.536;2022-07-06T03:12:17;11.68;;;2.72;;
58338;SDS011;48278;52.704;6.536;2022-07-06T03:14:43;8.13;;;3.00;;
58338;SDS011;48278;52.704;6.536;2022-07-06T03:17:09;11.98;;;2.90;;
58338;SDS011;48278;52.704;6.536;2022-07-06T03:19:35;11.55;;;2.90;;
58338;SDS011;48278;52.704;6.536;2022-07-06T03:22:01;8.10;;;3.20;;
58338;SDS011;48278;52.704;6.536;2022-07-06T03:24:27;11.15;;;2.97;;
58338;SDS011;48278;52.704;6.536;2022-07-06T03:26:53;9.20;;;2.65;;
58338;SDS011;48278;52.704;6.536;2022-07-06T03:29:19;11.98;;;3.50;;
58338;SDS011;48278;52.704;6.536;2022-07-06T03:31:45;7.63;;;3.15;;
58338;SDS011;48278;52.704;6.536;2022-07-06T03:34:11;11.25;;;2.95;;
58338;SDS011;48278;52.704;6.536;2022-07-06T03:36:37;11.18;;;3.45;;
58338;SDS011;48278;52.704;6.536;2022-07-06T03:39:03;10.20;;;3.30;;
58338;SDS011;48278;52.704;6.536;2022-07-06T03:41:28;8.48;;;3.30;;
58338;SDS011;48278;52.704;6.536;2022-07-06T03:43:54;12.30;;;3.05;;
58338;SDS011;48278;52.704;6.536;2022-07-06T03:46:20;10.65;;;3.28;;
58338;SDS011;48278;52.704;6.536;2022-07-06T03:48:46;11.48;;;2.53;;
58338;SDS011;48278;52.704;6.536;2022-07-06T03:51:12;7.88;;;3.03;;
58338;SDS011;48278;52.704;6.536;2022-07-06T03:53:37;11.52;;;3.15;;
58338;SDS011;48278;52.704;6.536;2022-07-06T03:56:03;12.43;;;3.05;;
58338;SDS011;48278;52.704;6.536;2022-07-06T03:58:48;7.85;;;2.47;;
58338;SDS011;48278;52.704;6.536;2022-07-06T04:01:13;11.65;;;3.08;;
58338;SDS011;48278;52.704;6.536;2022-07-06T04:03:39;11.48;;;2.92;;
58338;SDS011;48278;52.704;6.536;2022-07-06T04:06:05;11.13;;;2.75;;
58338;SDS011;48278;52.704;6.536;2022-07-06T04:08:31;9.35;;;2.45;;
58338;SDS011;48278;52.704;6.536;2022-07-06T04:10:57;7.85;;;2.53;;
58338;SDS011;48278;52.704;6.536;2022-07-06T04:13:22;8.57;;;2.70;;
58338;SDS011;48278;52.704;6.536;2022-07-06T04:15:50;9.15;;;2.20;;
58338;SDS011;48278;52.704;6.536;2022-07-06T04:18:16;14.50;;;2.88;;
58338;SDS011;48278;52.704;6.536;2022-07-06T04:20:42;8.60;;;2.40;;
58338;SDS011;48278;52.704;6.536;2022-07-06T04:23:08;11.45;;;2.25;;
58338;SDS011;48278;52.704;6.536;2022-07-06T04:25:34;11.05;;;2.60;;
58338;SDS011;48278;52.704;6.536;2022-07-06T04:27:59;8.93;;;2.40;;
58338;SDS011;48278;52.704;6.536;2022-07-06T04:30:25;9.27;;;2.35;;
58338;SDS011;48278;52.704;6.536;2022-07-06T04:32:51;8.95;;;1.92;;
58338;SDS011;48278;52.704;6.536;2022-07-06T04:35:17;6.78;;;2.20;;
58338;SDS011;48278;52.704;6.536;2022-07-06T04:37:43;7.72;;;2.20;;
58338;SDS011;48278;52.704;6.536;2022-07-06T04:40:11;9.73;;;2.10;;
58338;SDS011;48278;52.704;6.536;2022-07-06T04:42:37;9.48;;;1.83;;
58338;SDS011;48278;52.704;6.536;2022-07-06T04:45:03;11.27;;;1.93;;
58338;SDS011;48278;52.704;6.536;2022-07-06T04:47:30;10.52;;;2.10;;
58338;SDS011;48278;52.704;6.536;2022-07-06T04:49:56;8.27;;;1.95;;
58338;SDS011;48278;52.704;6.536;2022-07-06T04:52:22;11.15;;;2.28;;
58338;SDS011;48278;52.704;6.536;2022-07-06T04:54:47;10.02;;;2.03;;
58338;SDS011;48278;52.704;6.536;2022-07-06T04:57:13;12.65;;;1.98;;
58338;SDS011;48278;52.704;6.536;2022-07-06T04:59:39;7.80;;;1.92;;
58338;SDS011;48278;52.704;6.536;2022-07-06T05:02:05;6.22;;;1.95;;
58338;SDS011;48278;52.704;6.536;2022-07-06T05:04:31;9.25;;;1.77;;
58338;SDS011;48278;52.704;6.536;2022-07-06T05:06:57;12.27;;;2.40;;
58338;SDS011;48278;52.704;6.536;2022-07-06T05:09:23;7.78;;;1.70;;
58338;SDS011;48278;52.704;6.536;2022-07-06T05:11:49;7.32;;;1.88;;
58338;SDS011;48278;52.704;6.536;2022-07-06T05:14:15;8.25;;;1.92;;
58338;SDS011;48278;52.704;6.536;2022-07-06T05:16:40;10.80;;;2.03;;
58338;SDS011;48278;52.704;6.536;2022-07-06T05:19:12;7.70;;;2.05;;
58338;SDS011;48278;52.704;6.536;2022-07-06T05:21:38;9.73;;;2.05;;
58338;SDS011;48278;52.704;6.536;2022-07-06T05:24:05;9.18;;;2.08;;
58338;SDS011;48278;52.704;6.536;2022-07-06T05:26:31;8.93;;;1.85;;
58338;SDS011;48278;52.704;6.536;2022-07-06T05:28:57;8.57;;;2.30;;
58338;SDS011;48278;52.704;6.536;2022-07-06T05:31:23;10.00;;;1.90;;
58338;SDS011;48278;52.704;6.536;2022-07-06T05:33:49;13.20;;;2.55;;
58338;SDS011;48278;52.704;6.536;2022-07-06T05:36:15;20.58;;;2.35;;
58338;SDS011;48278;52.704;6.536;2022-07-06T05:38:41;9.23;;;1.73;;
58338;SDS011;48278;52.704;6.536;2022-07-06T05:41:07;8.93;;;1.65;;
58338;SDS011;48278;52.704;6.536;2022-07-06T05:43:34;12.25;;;2.00;;
58338;SDS011;48278;52.704;6.536;2022-07-06T05:46:03;11.98;;;1.80;;
58338;SDS011;48278;52.704;6.536;2022-07-06T05:48:29;10.88;;;1.48;;
58338;SDS011;48278;52.704;6.536;2022-07-06T05:51:14;4.60;;;1.30;;
58338;SDS011;48278;52.704;6.536;2022-07-06T05:53:39;18.23;;;1.60;;
58338;SDS011;48278;52.704;6.536;2022-07-06T05:56:05;7.80;;;1.10;;
58338;SDS011;48278;52.704;6.536;2022-07-06T05:58:31;7.57;;;0.80;;
58338;SDS011;48278;52.704;6.536;2022-07-06T06:00:57;4.22;;;0.80;;
58338;SDS011;48278;52.704;6.536;2022-07-06T06:03:22;7.75;;;0.82;;
58338;SDS011;48278;52.704;6.536;2022-07-06T06:05:48;6.68;;;0.65;;
58338;SDS011;48278;52.704;6.536;2022-07-06T06:08:14;7.97;;;0.70;;
58338;SDS011;48278;52.704;6.536;2022-07-06T06:10:40;2.65;;;0.52;;
58338;SDS011;48278;52.704;6.536;2022-07-06T06:13:06;10.80;;;0.80;;
58338;SDS011;48278;52.704;6.536;2022-07-06T06:15:32;7.25;;;0.93;;
58338;SDS011;48278;52.704;6.536;2022-07-06T06:17:58;7.57;;;0.60;;
58338;SDS011;48278;52.704;6.536;2022-07-06T06:20:23;3.05;;;0.55;;
58338;SDS011;48278;52.704;6.536;2022-07-06T06:22:50;5.07;;;0.45;;
58338;SDS011;48278;52.704;6.536;2022-07-06T06:25:18;6.90;;;0.50;;
58338;SDS011;48278;52.704;6.536;2022-07-06T06:27:45;8.13;;;0.50;;
58338;SDS011;48278;52.704;6.536;2022-07-06T06:30:12;5.05;;;0.40;;
58338;SDS011;48278;52.704;6.536;2022-07-06T06:32:38;5.50;;;0.57;;
58338;SDS011;48278;52.704;6.536;2022-07-06T06:35:05;5.13;;;0.40;;
58338;SDS011;48278;52.704;6.536;2022-07-06T06:37:31;5.97;;;0.40;;
58338;SDS011;48278;52.704;6.536;2022-07-06T06:39:59;6.20;;;0.60;;
58338;SDS011;48278;52.704;6.536;2022-07-06T06:42:25;6.38;;;0.40;;
58338;SDS011;48278;52.704;6.536;2022-07-06T06:44:51;6.63;;;0.63;;
58338;SDS011;48278;52.704;6.536;2022-07-06T06:47:17;4.15;;;0.63;;
58338;SDS011;48278;52.704;6.536;2022-07-06T06:52:09;8.17;;;0.77;;
58338;SDS011;48278;52.704;6.536;2022-07-06T06:54:35;9.27;;;0.70;;
58338;SDS011;48278;52.704;6.536;2022-07-06T06:57:01;9.70;;;0.50;;
58338;SDS011;48278;52.704;6.536;2022-07-06T06:59:26;5.03;;;0.60;;
58338;SDS011;48278;52.704;6.536;2022-07-06T07:01:52;7.07;;;0.50;;
58338;SDS011;48278;52.704;6.536;2022-07-06T07:04:18;6.28;;;0.50;;
58338;SDS011;48278;52.704;6.536;2022-07-06T07:06:44;6.32;;;0.50;;
58338;SDS011;48278;52.704;6.536;2022-07-06T07:09:09;6.97;;;0.30;;
58338;SDS011;48278;52.704;6.536;2022-07-06T07:11:35;5.57;;;0.60;;
58338;SDS011;48278;52.704;6.536;2022-07-06T07:14:01;4.50;;;0.50;;
58338;SDS011;48278;52.704;6.536;2022-07-06T07:16:27;5.03;;;0.50;;
58338;SDS011;48278;52.704;6.536;2022-07-06T07:18:53;5.03;;;0.70;;
58338;SDS011;48278;52.704;6.536;2022-07-06T07:21:19;7.67;;;0.60;;
58338;SDS011;48278;52.704;6.536;2022-07-06T07:23:45;6.28;;;0.45;;
58338;SDS011;48278;52.704;6.536;2022-07-06T07:26:10;5.33;;;0.60;;
58338;SDS011;48278;52.704;6.536;2022-07-06T07:28:36;5.80;;;0.40;;
58338;SDS011;48278;52.704;6.536;2022-07-06T07:31:02;4.05;;;0.40;;
58338;SDS011;48278;52.704;6.536;2022-07-06T07:33:28;5.32;;;0.50;;
58338;SDS011;48278;52.704;6.536;2022-07-06T07:35:54;9.40;;;0.60;;
58338;SDS011;48278;52.704;6.536;2022-07-06T07:38:20;9.43;;;0.52;;
58338;SDS011;48278;52.704;6.536;2022-07-06T07:40:46;3.17;;;0.30;;
58338;SDS011;48278;52.704;6.536;2022-07-06T07:43:11;3.45;;;0.30;;
58338;SDS011;48278;52.704;6.536;2022-07-06T07:45:37;7.68;;;0.75;;
58338;SDS011;48278;52.704;6.536;2022-07-06T07:48:03;4.93;;;0.40;;
58338;SDS011;48278;52.704;6.536;2022-07-06T07:50:29;3.33;;;0.30;;
58338;SDS011;48278;52.704;6.536;2022-07-06T07:52:55;3.08;;;0.40;;
58338;SDS011;48278;52.704;6.536;2022-07-06T07:55:21;3.08;;;0.30;;
58338;SDS011;48278;52.704;6.536;2022-07-06T07:57:47;8.93;;;0.30;;
58338;SDS011;48278;52.704;6.536;2022-07-06T08:00:12;3.95;;;0.43;;
58338;SDS011;48278;52.704;6.536;2022-07-06T08:02:38;6.70;;;0.40;;
58338;SDS011;48278;52.704;6.536;2022-07-06T08:05:04;4.20;;;0.50;;
58338;SDS011;48278;52.704;6.536;2022-07-06T08:07:30;5.38;;;0.45;;
58338;SDS011;48278;52.704;6.536;2022-07-06T08:09:56;5.67;;;0.47;;
58338;SDS011;48278;52.704;6.536;2022-07-06T08:12:22;5.97;;;0.43;;
58338;SDS011;48278;52.704;6.536;2022-07-06T08:14:48;5.03;;;0.50;;
58338;SDS011;48278;52.704;6.536;2022-07-06T08:17:14;2.03;;;0.32;;
58338;SDS011;48278;52.704;6.536;2022-07-06T08:19:40;5.75;;;0.40;;
58338;SDS011;48278;52.704;6.536;2022-07-06T08:22:05;3.90;;;0.50;;
58338;SDS011;48278;52.704;6.536;2022-07-06T08:24:35;4.90;;;0.40;;
58338;SDS011;48278;52.704;6.536;2022-07-06T08:27:01;3.42;;;0.30;;
58338;SDS011;48278;52.704;6.536;2022-07-06T08:29:28;8.93;;;0.50;;
58338;SDS011;48278;52.704;6.536;2022-07-06T08:31:55;3.90;;;0.30;;
58338;SDS011;48278;52.704;6.536;2022-07-06T08:34:21;5.10;;;0.40;;
58338;SDS011;48278;52.704;6.536;2022-07-06T08:36:48;8.07;;;0.52;;
58338;SDS011;48278;52.704;6.536;2022-07-06T08:39:13;4.80;;;0.60;;
58338;SDS011;48278;52.704;6.536;2022-07-06T08:41:40;2.43;;;0.30;;
58338;SDS011;48278;52.704;6.536;2022-07-06T08:44:08;7.50;;;0.40;;
58338;SDS011;48278;52.704;6.536;2022-07-06T08:46:35;5.50;;;0.50;;
58338;SDS011;48278;52.704;6.536;2022-07-06T08:49:03;4.75;;;0.50;;
58338;SDS011;48278;52.704;6.536;2022-07-06T08:51:31;4.60;;;0.30;;
58338;SDS011;48278;52.704;6.536;2022-07-06T08:53:56;7.67;;;0.40;;
58338;SDS011;48278;52.704;6.536;2022-07-06T08:56:23;5.63;;;0.30;;
58338;SDS011;48278;52.704;6.536;2022-07-06T08:58:50;3.92;;;0.40;;
58338;SDS011;48278;52.704;6.536;2022-07-06T09:01:16;3.30;;;0.40;;
58338;SDS011;48278;52.704;6.536;2022-07-06T09:03:43;7.57;;;0.38;;
58338;SDS011;48278;52.704;6.536;2022-07-06T09:06:12;3.13;;;0.30;;
58338;SDS011;48278;52.704;6.536;2022-07-06T09:08:41;4.28;;;0.40;;
58338;SDS011;48278;52.704;6.536;2022-07-06T09:11:08;5.88;;;0.60;;
58338;SDS011;48278;52.704;6.536;2022-07-06T09:13:35;5.28;;;0.40;;
58338;SDS011;48278;52.704;6.536;2022-07-06T09:16:13;4.17;;;0.40;;
58338;SDS011;48278;52.704;6.536;2022-07-06T09:18:43;8.13;;;0.60;;
58338;SDS011;48278;52.704;6.536;2022-07-06T09:21:10;4.63;;;0.40;;
58338;SDS011;48278;52.704;6.536;2022-07-06T09:23:36;3.90;;;0.40;;
58338;SDS011;48278;52.704;6.536;2022-07-06T09:26:03;6.70;;;0.70;;
58338;SDS011;48278;52.704;6.536;2022-07-06T09:28:43;7.95;;;0.40;;
58338;SDS011;48278;52.704;6.536;2022-07-06T09:31:10;2.85;;;0.30;;
58338;SDS011;48278;52.704;6.536;2022-07-06T09:33:36;4.70;;;0.40;;
58338;SDS011;48278;52.704;6.536;2022-07-06T09:36:02;3.57;;;0.40;;
58338;SDS011;48278;52.704;6.536;2022-07-06T09:38:31;5.93;;;0.50;;
58338;SDS011;48278;52.704;6.536;2022-07-06T09:40:56;5.07;;;0.68;;
58338;SDS011;48278;52.704;6.536;2022-07-06T09:43:23;5.03;;;0.45;;
58338;SDS011;48278;52.704;6.536;2022-07-06T09:45:54;3.17;;;0.30;;
58338;SDS011;48278;52.704;6.536;2022-07-06T09:50:48;4.15;;;0.30;;
58338;SDS011;48278;52.704;6.536;2022-07-06T09:53:25;2.00;;;0.30;;
58338;SDS011;48278;52.704;6.536;2022-07-06T09:55:55;3.35;;;0.30;;
58338;SDS011;48278;52.704;6.536;2022-07-06T09:58:23;3.90;;;0.30;;
58338;SDS011;48278;52.704;6.536;2022-07-06T10:00:49;3.20;;;0.20;;
58338;SDS011;48278;52.704;6.536;2022-07-06T10:03:16;1.70;;;0.30;;
58338;SDS011;48278;52.704;6.536;2022-07-06T10:05:44;3.38;;;0.30;;
58338;SDS011;48278;52.704;6.536;2022-07-06T10:08:12;4.63;;;0.40;;
58338;SDS011;48278;52.704;6.536;2022-07-06T10:10:39;3.65;;;0.30;;
58338;SDS011;48278;52.704;6.536;2022-07-06T10:13:07;3.72;;;0.22;;
58338;SDS011;48278;52.704;6.536;2022-07-06T10:15:34;6.57;;;0.25;;
58338;SDS011;48278;52.704;6.536;2022-07-06T10:18:05;3.40;;;0.20;;
58338;SDS011;48278;52.704;6.536;2022-07-06T10:20:36;3.88;;;0.30;;
58338;SDS011;48278;52.704;6.536;2022-07-06T10:23:04;5.30;;;0.40;;
58338;SDS011;48278;52.704;6.536;2022-07-06T10:25:32;3.63;;;0.30;;
58338;SDS011;48278;52.704;6.536;2022-07-06T10:27:59;1.92;;;0.43;;
58338;SDS011;48278;52.704;6.536;2022-07-06T10:30:25;5.43;;;0.30;;
58338;SDS011;48278;52.704;6.536;2022-07-06T10:32:53;3.90;;;0.30;;
58338;SDS011;48278;52.704;6.536;2022-07-06T10:35:21;6.75;;;0.40;;
58338;SDS011;48278;52.704;6.536;2022-07-06T10:38:02;5.20;;;0.50;;
58338;SDS011;48278;52.704;6.536;2022-07-06T10:40:36;2.28;;;0.20;;
58338;SDS011;48278;52.704;6.536;2022-07-06T10:43:21;11.20;;;0.30;;
58338;SDS011;48278;52.704;6.536;2022-07-06T10:53:15;2.78;;;0.25;;
58338;SDS011;48278;52.704;6.536;2022-07-06T10:55:43;1.33;;;0.20;;
58338;SDS011;48278;52.704;6.536;2022-07-06T10:58:33;4.22;;;0.40;;
58338;SDS011;48278;52.704;6.536;2022-07-06T11:01:04;5.18;;;0.30;;
58338;SDS011;48278;52.704;6.536;2022-07-06T11:06:07;4.50;;;0.30;;
58338;SDS011;48278;52.704;6.536;2022-07-06T11:14:20;2.45;;;0.40;;
58338;SDS011;48278;52.704;6.536;2022-07-06T11:19:13;2.77;;;0.30;;
58338;SDS011;48278;52.704;6.536;2022-07-06T11:21:50;4.25;;;0.30;;
58338;SDS011;48278;52.704;6.536;2022-07-06T11:24:28;3.72;;;0.38;;
58338;SDS011;48278;52.704;6.536;2022-07-06T11:26:55;5.10;;;0.40;;
58338;SDS011;48278;52.704;6.536;2022-07-06T11:29:22;4.70;;;0.40;;
58338;SDS011;48278;52.704;6.536;2022-07-06T11:31:50;4.70;;;0.30;;
58338;SDS011;48278;52.704;6.536;2022-07-06T11:34:24;5.15;;;0.30;;
58338;SDS011;48278;52.704;6.536;2022-07-06T11:36:58;4.68;;;0.65;;
58338;SDS011;48278;52.704;6.536;2022-07-06T11:39:28;3.50;;;0.45;;
58338;SDS011;48278;52.704;6.536;2022-07-06T11:41:55;5.60;;;0.40;;
58338;SDS011;48278;52.704;6.536;2022-07-06T11:44:22;2.55;;;0.30;;
58338;SDS011;48278;52.704;6.536;2022-07-06T11:46:48;7.80;;;0.70;;
58338;SDS011;48278;52.704;6.536;2022-07-06T11:49:15;6.35;;;0.40;;
58338;SDS011;48278;52.704;6.536;2022-07-06T11:51:41;4.13;;;0.45;;
58338;SDS011;48278;52.704;6.536;2022-07-06T11:54:12;3.80;;;0.30;;
58338;SDS011;48278;52.704;6.536;2022-07-06T11:57:12;4.03;;;0.40;;
58338;SDS011;48278;52.704;6.536;2022-07-06T11:59:33;3.28;;;0.40;;
58338;SDS011;48278;52.704;6.536;2022-07-06T12:02:01;3.40;;;0.40;;
58338;SDS011;48278;52.704;6.536;2022-07-06T12:04:30;2.35;;;0.20;;
58338;SDS011;48278;52.704;6.536;2022-07-06T12:07:01;3.92;;;0.30;;
58338;SDS011;48278;52.704;6.536;2022-07-06T12:09:29;6.03;;;0.70;;
58338;SDS011;48278;52.704;6.536;2022-07-06T12:11:56;3.53;;;0.40;;
58338;SDS011;48278;52.704;6.536;2022-07-06T12:14:22;2.87;;;0.40;;
58338;SDS011;48278;52.704;6.536;2022-07-06T12:16:48;3.73;;;0.40;;
58338;SDS011;48278;52.704;6.536;2022-07-06T12:19:15;2.92;;;0.30;;
58338;SDS011;48278;52.704;6.536;2022-07-06T12:21:46;3.72;;;0.30;;
58338;SDS011;48278;52.704;6.536;2022-07-06T12:26:45;3.80;;;0.40;;
58338;SDS011;48278;52.704;6.536;2022-07-06T12:29:12;5.15;;;0.60;;
58338;SDS011;48278;52.704;6.536;2022-07-06T12:31:42;5.82;;;0.40;;
58338;SDS011;48278;52.704;6.536;2022-07-06T12:34:17;2.90;;;0.28;;
58338;SDS011;48278;52.704;6.536;2022-07-06T12:36:47;2.67;;;0.50;;
58338;SDS011;48278;52.704;6.536;2022-07-06T12:39:14;3.47;;;0.40;;
58338;SDS011;48278;52.704;6.536;2022-07-06T12:42:01;2.58;;;0.30;;
58338;SDS011;48278;52.704;6.536;2022-07-06T12:44:28;2.45;;;0.30;;
58338;SDS011;48278;52.704;6.536;2022-07-06T12:47:02;4.82;;;0.40;;
58338;SDS011;48278;52.704;6.536;2022-07-06T12:49:29;4.32;;;0.40;;
58338;SDS011;48278;52.704;6.536;2022-07-06T12:51:56;2.97;;;0.52;;
58338;SDS011;48278;52.704;6.536;2022-07-06T12:54:27;1.33;;;0.32;;
58338;SDS011;48278;52.704;6.536;2022-07-06T12:56:56;4.45;;;0.30;;
58338;SDS011;48278;52.704;6.536;2022-07-06T12:59:22;4.93;;;0.50;;
58338;SDS011;48278;52.704;6.536;2022-07-06T13:01:52;3.58;;;0.30;;
58338;SDS011;48278;52.704;6.536;2022-07-06T13:04:25;2.95;;;0.30;;
58338;SDS011;48278;52.704;6.536;2022-07-06T13:06:52;3.47;;;0.38;;
58338;SDS011;48278;52.704;6.536;2022-07-06T13:09:18;3.60;;;0.40;;
58338;SDS011;48278;52.704;6.536;2022-07-06T13:11:46;1.48;;;0.30;;
58338;SDS011;48278;52.704;6.536;2022-07-06T13:14:14;7.25;;;0.50;;
58338;SDS011;48278;52.704;6.536;2022-07-06T13:16:40;6.53;;;0.52;;
58338;SDS011;48278;52.704;6.536;2022-07-06T13:19:06;3.35;;;0.43;;
58338;SDS011;48278;52.704;6.536;2022-07-06T13:21:32;3.05;;;0.35;;
58338;SDS011;48278;52.704;6.536;2022-07-06T13:23:58;7.87;;;0.80;;
58338;SDS011;48278;52.704;6.536;2022-07-06T13:26:24;6.47;;;0.77;;
58338;SDS011;48278;52.704;6.536;2022-07-06T13:28:59;3.70;;;0.45;;
58338;SDS011;48278;52.704;6.536;2022-07-06T13:31:26;2.90;;;0.40;;
58338;SDS011;48278;52.704;6.536;2022-07-06T13:36:18;3.55;;;0.50;;
58338;SDS011;48278;52.704;6.536;2022-07-06T13:38:44;4.60;;;0.30;;
58338;SDS011;48278;52.704;6.536;2022-07-06T13:41:10;4.30;;;0.50;;
58338;SDS011;48278;52.704;6.536;2022-07-06T13:43:36;3.30;;;0.50;;
58338;SDS011;48278;52.704;6.536;2022-07-06T13:46:04;4.23;;;0.50;;
58338;SDS011;48278;52.704;6.536;2022-07-06T13:48:32;2.38;;;0.30;;
58338;SDS011;48278;52.704;6.536;2022-07-06T13:50:59;3.28;;;0.30;;
58338;SDS011;48278;52.704;6.536;2022-07-06T13:53:26;2.63;;;0.30;;
58338;SDS011;48278;52.704;6.536;2022-07-06T13:55:52;2.97;;;0.40;;
58338;SDS011;48278;52.704;6.536;2022-07-06T13:58:18;4.93;;;0.40;;
58338;SDS011;48278;52.704;6.536;2022-07-06T14:03:10;3.90;;;0.40;;
58338;SDS011;48278;52.704;6.536;2022-07-06T14:05:36;5.20;;;0.55;;
58338;SDS011;48278;52.704;6.536;2022-07-06T14:08:02;2.13;;;0.50;;
58338;SDS011;48278;52.704;6.536;2022-07-06T14:10:28;6.17;;;0.50;;
58338;SDS011;48278;52.704;6.536;2022-07-06T14:12:54;1.80;;;0.30;;
58338;SDS011;48278;52.704;6.536;2022-07-06T14:15:19;2.83;;;0.33;;
58338;SDS011;48278;52.704;6.536;2022-07-06T14:17:45;7.63;;;0.70;;
58338;SDS011;48278;52.704;6.536;2022-07-06T14:20:13;5.03;;;0.70;;
58338;SDS011;48278;52.704;6.536;2022-07-06T14:22:43;5.22;;;0.57;;
58338;SDS011;48278;52.704;6.536;2022-07-06T14:25:09;3.93;;;0.60;;
58338;SDS011;48278;52.704;6.536;2022-07-06T14:27:35;3.63;;;0.50;;
58338;SDS011;48278;52.704;6.536;2022-07-06T14:30:01;6.70;;;0.70;;
58338;SDS011;48278;52.704;6.536;2022-07-06T14:32:28;8.15;;;0.70;;
58338;SDS011;48278;52.704;6.536;2022-07-06T14:34:53;6.60;;;0.60;;
58338;SDS011;48278;52.704;6.536;2022-07-06T14:37:19;6.47;;;0.50;;
58338;SDS011;48278;52.704;6.536;2022-07-06T14:39:45;5.10;;;0.67;;
58338;SDS011;48278;52.704;6.536;2022-07-06T14:42:11;4.57;;;0.80;;
58338;SDS011;48278;52.704;6.536;2022-07-06T14:44:37;1.75;;;0.60;;
58338;SDS011;48278;52.704;6.536;2022-07-06T14:47:03;5.10;;;1.02;;
58338;SDS011;48278;52.704;6.536;2022-07-06T14:49:30;5.80;;;0.65;;
58338;SDS011;48278;52.704;6.536;2022-07-06T14:51:56;3.25;;;0.57;;
58338;SDS011;48278;52.704;6.536;2022-07-06T14:54:23;5.35;;;0.85;;
58338;SDS011;48278;52.704;6.536;2022-07-06T14:56:49;4.53;;;0.77;;
58338;SDS011;48278;52.704;6.536;2022-07-06T14:59:15;4.70;;;0.77;;
58338;SDS011;48278;52.704;6.536;2022-07-06T15:01:41;4.22;;;0.75;;
58338;SDS011;48278;52.704;6.536;2022-07-06T15:04:07;4.82;;;0.90;;
58338;SDS011;48278;52.704;6.536;2022-07-06T15:06:33;4.68;;;0.80;;
58338;SDS011;48278;52.704;6.536;2022-07-06T15:08:59;3.70;;;0.80;;
58338;SDS011;48278;52.704;6.536;2022-07-06T15:11:32;10.23;;;0.95;;
58338;SDS011;48278;52.704;6.536;2022-07-06T15:13:58;4.95;;;0.85;;
58338;SDS011;48278;52.704;6.536;2022-07-06T15:16:25;2.67;;;0.70;;
58338;SDS011;48278;52.704;6.536;2022-07-06T15:18:51;4.68;;;0.70;;
58338;SDS011;48278;52.704;6.536;2022-07-06T15:21:18;2.90;;;0.70;;
58338;SDS011;48278;52.704;6.536;2022-07-06T15:23:44;2.77;;;0.73;;